Terminal Aerodrome Forecast
Issued by NWS

Home | Current Version | Previous Version | Text Only | Print | Product List | Glossary On
Versions: 1 2 3 4 5 6 7 8 9 10 11 12 13 14 15 16 17 18 19 20
000
FTUS46 KPDT 251837 AAA
TAFYKM
TAF AMD
KYKM 251837Z 2519/2618 33007KT P6SM FEW050
     FM252100 31008KT P6SM SCT050
     FM260300 32009G17KT P6SM SCT050 SCT100
     FM260700 33006KT P6SM SCT100 SCT150
     FM261500 35004KT P6SM FEW100=

USA.gov is the U.S. government's official web portal to all federal, state and local government web resources and services.